Time;durP1;ratioP1;P1;durP2;ratioP2;P2;SDS_P1;SDS_P2;PMS_P1;PMS_P2;Temp;Humidity;BMP_temperature;BMP_pressure;BME280_temperature;BME280_humidity;BME280_pressure;Samples;Min_cycle;Max_cycle;Signal;HPM_P1;HPM_P2
2021/01/09 00:01:41;;;;;;;12.40;6.70;;;;;;;1.12;100.00;99802.59;1803429;78;21011;-71
2021/01/09 00:04:09;;;;;;;9.90;4.83;;;;;;;1.12;100.00;99808.75;1803493;79;21190;-70
2021/01/09 00:06:39;;;;;;;7.53;4.33;;;;;;;1.12;100.00;99815.91;1803290;79;20981;-71
2021/01/09 00:09:08;;;;;;;9.40;4.53;;;;;;;1.13;100.00;99813.13;1803399;79;20945;-70
2021/01/09 00:11:36;;;;;;;6.80;4.23;;;;;;;1.13;100.00;99809.13;1821506;77;20970;-70
2021/01/09 00:14:04;;;;;;;5.23;3.23;;;;;;;1.10;100.00;99814.69;1848311;77;20942;-70
2021/01/09 00:16:32;;;;;;;9.97;4.47;;;;;;;1.11;100.00;99815.52;1848484;77;21176;-71
2021/01/09 00:19:01;;;;;;;12.73;4.57;;;;;;;1.13;100.00;99818.45;1848464;77;20994;-70
2021/01/09 00:21:36;;;;;;;10.20;4.50;;;;;;;1.11;100.00;99815.03;1848384;77;20859;-70
2021/01/09 00:24:08;;;;;;;13.97;5.50;;;;;;;1.12;100.00;99806.09;1848475;76;21045;-71
2021/01/09 00:26:36;;;;;;;10.98;5.10;;;;;;;1.13;100.00;99802.48;1848533;77;20978;-70
2021/01/09 00:29:05;;;;;;;12.47;5.00;;;;;;;1.14;100.00;99806.82;1848259;77;21243;-69
2021/01/09 00:31:34;;;;;;;8.43;4.07;;;;;;;1.14;100.00;99795.33;1848441;77;21017;-71
2021/01/09 00:34:02;;;;;;;6.30;3.30;;;;;;;1.12;100.00;99793.27;1848434;77;20978;-71
2021/01/09 00:36:31;;;;;;;3.53;2.83;;;;;;;1.09;100.00;99790.34;1848366;77;20934;-71
2021/01/09 00:39:01;;;;;;;7.07;3.47;;;;;;;1.07;100.00;99788.28;1848375;77;20981;-69
2021/01/09 00:41:30;;;;;;;5.30;3.60;;;;;;;1.07;100.00;99786.95;1848385;77;21375;-70
2021/01/09 00:43:59;;;;;;;8.33;3.80;;;;;;;1.06;100.00;99778.61;1848383;77;21017;-70
2021/01/09 00:46:26;;;;;;;9.13;4.47;;;;;;;1.05;100.00;99776.91;1819482;77;20992;-71
2021/01/09 00:48:55;;;;;;;7.53;4.50;;;;;;;1.06;100.00;99769.75;1803284;79;21005;-71
2021/01/09 00:51:23;;;;;;;16.90;7.83;;;;;;;1.02;100.00;99770.47;1803482;79;20933;-70
2021/01/09 00:53:51;;;;;;;19.23;8.33;;;;;;;1.00;100.00;99767.08;1803371;79;21195;-70
2021/01/09 00:56:18;;;;;;;11.50;5.27;;;;;;;1.01;100.00;99762.13;1803306;79;21000;-71
2021/01/09 01:01:17;;;;;;;4.43;3.10;;;;;;;1.01;100.00;99751.48;1804107;78;21610;-70
2021/01/09 01:03:45;;;;;;;4.67;3.13;;;;;;;1.00;100.00;99751.10;1823109;77;20997;-70
2021/01/09 01:06:13;;;;;;;5.17;2.53;;;;;;;0.99;100.00;99733.91;1823023;78;21376;-70
2021/01/09 01:08:41;;;;;;;2.90;2.30;;;;;;;0.98;100.00;99734.89;1823096;78;21044;-70
2021/01/09 01:11:10;;;;;;;2.97;1.97;;;;;;;0.95;100.00;99728.81;1816136;78;21106;-69
2021/01/09 01:13:38;;;;;;;6.53;3.50;;;;;;;0.95;100.00;99717.33;1790789;80;21027;-70
2021/01/09 01:16:06;;;;;;;6.10;3.47;;;;;;;0.94;100.00;99704.99;1790821;80;20987;-70
2021/01/09 01:18:34;;;;;;;10.90;5.30;;;;;;;0.92;100.00;99701.58;1790647;80;21135;-70
2021/01/09 01:21:03;;;;;;;6.87;3.67;;;;;;;0.92;100.00;99685.60;1804325;78;21068;-70
2021/01/09 01:23:38;;;;;;;19.02;8.15;;;;;;;0.97;100.00;99682.59;1829335;76;27834;-71
2021/01/09 01:26:13;;;;;;;9.50;4.37;;;;;;;0.92;100.00;99690.47;1815276;78;21438;-70
2021/01/09 01:28:41;;;;;;;4.57;3.27;;;;;;;0.95;100.00;99691.53;1815456;79;22287;-70
2021/01/09 01:31:09;;;;;;;4.97;2.93;;;;;;;0.95;100.00;99685.38;1815207;77;20937;-71
2021/01/09 01:33:39;;;;;;;6.87;4.17;;;;;;;0.94;100.00;99675.70;1815317;78;20960;-70
2021/01/09 01:36:09;;;;;;;6.83;3.10;;;;;;;0.93;100.00;99680.66;1824367;78;20925;-70
2021/01/09 01:38:37;;;;;;;7.63;3.83;;;;;;;0.92;100.00;99686.47;1765291;81;20999;-70
2021/01/09 01:41:06;;;;;;;8.03;4.03;;;;;;;0.94;100.00;99685.03;1765470;81;21218;-70
2021/01/09 01:43:35;;;;;;;5.17;2.87;;;;;;;0.93;100.00;99688.15;1765278;81;21003;-70
2021/01/09 01:46:06;;;;;;;6.63;3.87;;;;;;;0.94;100.00;99690.35;1750913;81;21095;-69
2021/01/09 01:48:34;;;;;;;9.47;3.87;;;;;;;0.92;100.00;99693.12;1722443;83;21037;-70
2021/01/09 01:51:03;;;;;;;4.00;2.70;;;;;;;0.93;100.00;99689.97;1672847;85;21116;-70
2021/01/09 01:53:31;;;;;;;2.70;1.97;;;;;;;0.92;100.00;99687.80;1709637;83;22185;-70
2021/01/09 01:55:59;;;;;;;3.67;2.33;;;;;;;0.91;100.00;99691.42;1707854;84;21048;-70
2021/01/09 01:58:28;;;;;;;2.80;2.33;;;;;;;0.91;100.00;99684.77;1707900;84;21052;-70
2021/01/09 02:00:56;;;;;;;4.93;2.60;;;;;;;0.93;100.00;99688.64;1707800;84;22096;-71
2021/01/09 02:03:24;;;;;;;10.23;4.47;;;;;;;0.94;100.00;99693.85;1707919;84;21024;-70
2021/01/09 02:06:10;;;;;;;7.67;3.70;;;;;;;0.98;100.00;99689.14;1707870;84;21392;-70
2021/01/09 02:09:05;;;;;;;7.43;3.90;;;;;;;0.99;100.00;99680.17;1707673;84;21060;-70
2021/01/09 02:12:13;;;;;;;8.90;3.93;;;;;;;0.99;100.00;99668.19;1697928;84;20982;-70
2021/01/09 02:14:55;;;;;;;10.87;4.77;;;;;;;0.97;100.00;99676.78;1700049;83;21056;-70
2021/01/09 02:17:31;;;;;;;7.37;4.17;;;;;;;1.01;100.00;99678.72;1845270;76;26312;-69
2021/01/09 02:19:59;;;;;;;9.50;4.60;;;;;;;0.94;100.00;99684.53;1810637;78;20960;-71
2021/01/09 02:22:42;;;;;;;2.40;1.77;;;;;;;0.93;100.00;99687.31;1815269;79;21366;-69
2021/01/09 02:25:12;;;;;;;2.08;1.75;;;;;;;0.93;100.00;99685.48;1814634;79;20999;-70
2021/01/09 02:27:40;;;;;;;2.47;1.73;;;;;;;0.94;100.00;99675.22;1777020;79;21083;-71
2021/01/09 02:30:21;;;;;;;2.80;2.43;;;;;;;0.95;100.00;99680.05;1777042;80;21000;-70
2021/01/09 02:33:04;;;;;;;3.50;2.60;;;;;;;0.97;100.00;99676.78;1777170;80;20981;-70
2021/01/09 02:35:40;;;;;;;6.97;3.10;;;;;;;1.03;100.00;99672.33;1845104;76;26955;-71
2021/01/09 02:38:08;;;;;;;6.80;4.10;;;;;;;0.98;100.00;99684.30;1815271;78;21024;-70
2021/01/09 02:40:41;;;;;;;10.00;4.53;;;;;;;0.97;100.00;99689.25;1815326;79;21364;-70
2021/01/09 02:43:11;;;;;;;14.43;6.50;;;;;;;0.93;100.00;99689.97;1728084;81;21043;-70
2021/01/09 02:45:40;;;;;;;12.10;5.53;;;;;;;0.90;100.00;99683.09;1727931;81;20968;-70
2021/01/09 02:48:09;;;;;;;17.43;6.17;;;;;;;0.86;100.00;99686.09;1728100;83;21110;-70
2021/01/09 02:50:37;;;;;;;10.67;5.47;;;;;;;0.83;100.00;99698.30;1727885;83;21016;-70
2021/01/09 02:53:05;;;;;;;9.97;5.53;;;;;;;0.79;100.00;99704.83;1728181;83;21201;-70
2021/01/09 02:55:33;;;;;;;7.70;3.93;;;;;;;0.72;100.00;99702.61;1727922;83;21048;-70
2021/01/09 02:58:01;;;;;;;10.60;5.97;;;;;;;0.68;100.00;99697.17;1728148;83;21024;-70
2021/01/09 03:00:30;;;;;;;6.70;4.57;;;;;;;0.64;100.00;99691.72;1727944;83;21043;-70
2021/01/09 03:02:58;;;;;;;8.67;5.00;;;;;;;0.64;100.00;99695.72;1728148;83;20948;-70
2021/01/09 03:05:26;;;;;;;12.20;6.23;;;;;;;0.63;100.00;99687.84;1727831;82;21182;-69
2021/01/09 03:07:54;;;;;;;16.57;6.70;;;;;;;0.62;100.00;99698.98;1728092;83;21935;-70
2021/01/09 03:10:22;;;;;;;13.97;6.93;;;;;;;0.59;100.00;99698.36;1727898;83;21110;-70
2021/01/09 03:12:49;;;;;;;10.40;5.30;;;;;;;0.57;100.00;99697.14;1727160;83;20965;-70
2021/01/09 03:15:18;;;;;;;11.93;5.80;;;;;;;0.54;100.00;99688.05;1727092;83;20974;-70
2021/01/09 03:17:49;;;;;;;15.03;8.30;;;;;;;0.52;100.00;99691.31;1727109;83;21619;-71
2021/01/09 03:20:17;;;;;;;11.93;6.00;;;;;;;0.47;100.00;99699.62;1727086;83;20977;-70
2021/01/09 03:22:45;;;;;;;11.00;5.47;;;;;;;0.40;100.00;99701.05;1727126;83;21001;-69
2021/01/09 03:25:13;;;;;;;4.73;3.07;;;;;;;0.35;100.00;99699.21;1727011;83;21068;-69
2021/01/09 03:27:41;;;;;;;10.63;4.93;;;;;;;0.32;100.00;99697.64;1727107;83;21068;-70
2021/01/09 03:30:11;;;;;;;16.87;8.73;;;;;;;0.31;100.00;99706.57;1727099;83;21203;-70
2021/01/09 03:32:40;;;;;;;15.00;7.90;;;;;;;0.28;100.00;99712.11;1726989;83;20990;-69
2021/01/09 03:35:09;;;;;;;14.37;6.73;;;;;;;0.25;100.00;99717.68;1730630;81;20953;-70
2021/01/09 03:37:36;;;;;;;28.43;16.40;;;;;;;0.23;100.00;99702.78;1732336;82;21601;-68
2021/01/09 03:40:06;;;;;;;27.00;19.20;;;;;;;0.21;100.00;99696.73;1732296;82;21125;-69
2021/01/09 03:42:34;;;;;;;26.20;16.63;;;;;;;0.18;100.00;99697.82;1732239;82;21207;-69
2021/01/09 03:45:04;;;;;;;18.43;10.23;;;;;;;0.14;100.00;99693.21;1732181;82;21020;-70
2021/01/09 03:47:32;;;;;;;20.23;11.50;;;;;;;0.11;100.00;99682.80;1781118;80;21584;-69
2021/01/09 03:50:00;;;;;;;15.93;7.90;;;;;;;0.11;100.00;99671.31;1783844;80;20926;-70
2021/01/09 03:52:29;;;;;;;16.43;10.03;;;;;;;0.09;100.00;99666.57;1709667;82;21013;-69
2021/01/09 03:54:57;;;;;;;22.23;11.43;;;;;;;0.08;100.00;99668.39;1738691;82;21214;-70
2021/01/09 03:57:24;;;;;;;22.97;11.80;;;;;;;0.07;100.00;99672.03;1738787;82;21021;-70
2021/01/09 03:59:53;;;;;;;34.63;21.77;;;;;;;0.03;100.00;99672.36;1738811;82;21016;-69
2021/01/09 04:02:20;;;;;;;26.73;17.13;;;;;;;0.01;100.00;99684.42;1738777;82;20961;-70
2021/01/09 04:04:48;;;;;;;16.43;9.13;;;;;;;-0.02;100.00;99685.97;1738846;82;20997;-70
2021/01/09 04:07:16;;;;;;;19.23;9.70;;;;;;;-0.05;100.00;99689.72;1738748;82;22720;-70
2021/01/09 04:09:44;;;;;;;30.57;18.50;;;;;;;-0.06;100.00;99677.38;1738696;82;21056;-69
2021/01/09 04:12:11;;;;;;;21.13;11.57;;;;;;;-0.06;100.00;99678.70;1738699;82;21052;-69
2021/01/09 04:14:40;;;;;;;23.37;9.73;;;;;;;-0.07;100.00;99688.11;1738407;82;21076;-69
2021/01/09 04:17:07;;;;;;;27.37;15.80;;;;;;;-0.08;100.00;99688.60;1738528;82;21056;-70
2021/01/09 04:19:35;;;;;;;15.37;8.90;;;;;;;-0.08;100.00;99687.76;1738525;82;21197;-70
2021/01/09 04:22:04;;;;;;;12.10;5.67;;;;;;;-0.11;100.00;99678.67;1738384;82;21008;-69
2021/01/09 04:24:33;;;;;;;16.13;8.77;;;;;;;-0.13;100.00;99679.27;1738616;82;21044;-70
2021/01/09 04:27:02;;;;;;;14.53;7.80;;;;;;;-0.13;100.00;99684.09;1738510;82;21008;-69
2021/01/09 04:29:31;;;;;;;13.93;6.97;;;;;;;-0.13;100.00;99678.78;1738643;82;20992;-70
2021/01/09 04:31:59;;;;;;;13.77;7.43;;;;;;;-0.12;100.00;99694.27;1738460;82;21372;-69
2021/01/09 04:34:27;;;;;;;14.00;7.27;;;;;;;-0.13;100.00;99691.23;1743493;81;21490;-69
2021/01/09 04:36:55;;;;;;;6.87;5.10;;;;;;;-0.13;100.00;99685.91;1757863;81;21011;-69
2021/01/09 04:39:23;;;;;;;14.07;8.03;;;;;;;-0.14;100.00;99695.70;1757966;81;20994;-69
2021/01/09 04:41:50;;;;;;;21.23;13.37;;;;;;;-0.16;100.00;99694.10;1757957;81;20944;-69
2021/01/09 04:44:18;;;;;;;10.53;5.93;;;;;;;-0.17;100.00;99689.27;1757951;81;21200;-70
2021/01/09 04:46:55;;;;;;;15.93;7.50;;;;;;;-0.17;100.00;99682.63;1732670;81;21019;-69
2021/01/09 04:49:26;;;;;;;15.10;7.13;;;;;;;-0.18;100.00;99692.04;1757961;81;21093;-70
2021/01/09 04:51:55;;;;;;;11.97;6.63;;;;;;;-0.18;100.00;99692.88;1695965;84;21040;-69
2021/01/09 04:54:25;;;;;;;7.93;5.10;;;;;;;-0.18;100.00;99685.39;1696631;84;21069;-68
2021/01/09 04:56:55;;;;;;;14.87;8.73;;;;;;;-0.23;100.00;99669.31;1696277;84;21576;-69
2021/01/09 04:59:24;;;;;;;13.90;7.57;;;;;;;-0.24;100.00;99690.19;1696058;84;21028;-68
2021/01/09 05:01:52;;;;;;;10.33;5.37;;;;;;;-0.25;100.00;99686.31;1724268;82;21070;-70
2021/01/09 05:04:21;;;;;;;15.77;8.27;;;;;;;-0.24;100.00;99688.86;1745765;82;21033;-71
2021/01/09 05:06:51;;;;;;;19.33;7.67;;;;;;;-0.23;100.00;99687.05;1745647;82;21009;-70
2021/01/09 05:09:18;;;;;;;14.43;5.97;;;;;;;-0.22;100.00;99707.36;1745643;82;21202;-69
2021/01/09 05:11:47;;;;;;;12.53;7.30;;;;;;;-0.25;100.00;99697.81;1730613;82;21034;-70
2021/01/09 05:14:15;;;;;;;17.17;7.00;;;;;;;-0.24;100.00;99707.47;1688805;85;21045;-69
2021/01/09 05:16:43;;;;;;;9.33;4.57;;;;;;;-0.22;100.00;99709.53;1665971;85;21108;-68
2021/01/09 05:19:13;;;;;;;17.17;9.30;;;;;;;-0.17;100.00;99695.08;1684942;85;21710;-69
2021/01/09 05:21:41;;;;;;;21.10;10.40;;;;;;;-0.15;100.00;99689.17;1709852;83;21341;-69
2021/01/09 05:24:10;;;;;;;18.33;8.97;;;;;;;-0.15;100.00;99690.50;1694898;83;21464;-69
2021/01/09 05:26:38;;;;;;;14.50;6.60;;;;;;;-0.15;100.00;99703.30;1695733;83;21598;-69
2021/01/09 05:29:06;;;;;;;9.90;4.40;;;;;;;-0.17;100.00;99711.02;1696046;83;21042;-68
2021/01/09 05:31:37;;;;;;;10.60;5.00;;;;;;;-0.18;100.00;99715.47;1719852;83;20974;-67
2021/01/09 05:34:05;;;;;;;7.83;3.40;;;;;;;-0.17;100.00;99714.52;1719743;83;21376;-69
2021/01/09 05:36:34;;;;;;;12.23;6.03;;;;;;;-0.14;100.00;99704.14;1730070;83;21068;-70
2021/01/09 05:39:04;;;;;;;18.37;10.43;;;;;;;-0.12;100.00;99723.51;1730174;83;21072;-69
2021/01/09 05:41:32;;;;;;;13.13;7.00;;;;;;;-0.12;100.00;99730.16;1744093;79;20969;-70
2021/01/09 05:44:05;;;;;;;16.10;6.20;;;;;;;-0.12;100.00;99719.03;1747254;79;20988;-70
2021/01/09 05:46:40;;;;;;;10.60;5.77;;;;;;;-0.09;100.00;99712.17;1831409;76;25328;-69
2021/01/09 05:49:09;;;;;;;14.73;8.40;;;;;;;-0.13;100.00;99717.80;1797074;79;21003;-69
2021/01/09 05:51:39;;;;;;;15.17;6.73;;;;;;;-0.14;100.00;99728.05;1761715;80;21379;-70
2021/01/09 05:54:08;;;;;;;16.33;8.53;;;;;;;-0.15;100.00;99744.98;1761481;80;21067;-71
2021/01/09 05:56:39;;;;;;;18.53;8.13;;;;;;;-0.14;100.00;99743.55;1761503;80;20984;-69
2021/01/09 05:59:07;;;;;;;21.80;11.07;;;;;;;-0.14;100.00;99744.00;1734014;81;21043;-69
2021/01/09 06:01:36;;;;;;;22.13;9.80;;;;;;;-0.17;100.00;99738.44;1734019;81;20999;-69
2021/01/09 06:04:18;;;;;;;20.53;10.77;;;;;;;-0.19;100.00;99752.32;1761501;81;21362;-70
2021/01/09 06:07:10;;;;;;;9.07;6.07;;;;;;;-0.20;100.00;99759.42;1748620;82;21013;-69
2021/01/09 06:09:58;;;;;;;16.33;7.97;;;;;;;-0.21;100.00;99751.09;1721974;83;21095;-71
2021/01/09 06:12:28;;;;;;;17.37;8.30;;;;;;;-0.22;100.00;99758.69;1745863;81;20968;-70
2021/01/09 06:14:56;;;;;;;15.83;8.80;;;;;;;-0.20;100.00;99766.06;1790676;80;21008;-69
2021/01/09 06:17:24;;;;;;;18.37;9.10;;;;;;;-0.20;100.00;99762.57;1764729;80;21197;-70
2021/01/09 06:19:52;;;;;;;15.93;8.77;;;;;;;-0.20;100.00;99774.04;1790666;80;21549;-69
2021/01/09 06:22:21;;;;;;;19.10;11.73;;;;;;;-0.19;100.00;99777.57;1763673;80;21019;-68
2021/01/09 06:24:49;;;;;;;21.33;10.33;;;;;;;-0.18;100.00;99780.58;1785857;80;21549;-69
2021/01/09 06:27:24;;;;;;;24.43;12.90;;;;;;;-0.17;100.00;99790.27;1760572;80;21474;-70
2021/01/09 06:29:55;;;;;;;31.90;16.63;;;;;;;-0.15;100.00;99804.77;1782843;80;21661;-70
2021/01/09 06:32:24;;;;;;;35.63;15.63;;;;;;;-0.16;100.00;99793.77;1786115;80;21036;-72
2021/01/09 06:34:51;;;;;;;22.60;12.80;;;;;;;-0.16;100.00;99774.70;1760564;80;21035;-71
2021/01/09 06:37:22;;;;;;;16.23;10.33;;;;;;;-0.14;100.00;99789.18;1735675;80;21045;-70
2021/01/09 06:39:52;;;;;;;15.48;8.73;;;;;;;-0.12;100.00;99790.79;1772091;80;21079;-71
2021/01/09 06:42:19;;;;;;;11.07;7.30;;;;;;;-0.11;100.00;99796.45;1751122;82;22674;-69
2021/01/09 06:44:51;;;;;;;34.07;16.80;;;;;;;-0.11;100.00;99797.78;1725823;80;21048;-71
2021/01/09 06:47:30;;;;;;;28.63;14.20;;;;;;;-0.11;100.00;99804.92;1787925;80;20937;-69
2021/01/09 06:50:28;;;;;;;37.43;19.63;;;;;;;-0.13;100.00;99807.69;1787186;80;21250;-69
2021/01/09 06:52:58;;;;;;;25.80;13.77;;;;;;;-0.14;100.00;99794.04;1786441;80;21142;-70
2021/01/09 06:55:43;;;;;;;18.07;9.80;;;;;;;-0.15;100.00;99798.97;1787078;80;21198;-69
2021/01/09 06:58:15;;;;;;;10.67;6.70;;;;;;;-0.17;100.00;99806.21;1785547;80;21043;-69
2021/01/09 07:00:43;;;;;;;18.23;9.90;;;;;;;-0.16;100.00;99822.54;1818631;78;21113;-71
2021/01/09 07:03:17;;;;;;;15.10;9.07;;;;;;;-0.14;100.00;99811.77;1819270;78;20889;-70
2021/01/09 07:05:49;;;;;;;16.53;8.40;;;;;;;-0.13;100.00;99815.66;1819443;78;21027;-71
2021/01/09 07:08:23;;;;;;;28.57;16.35;;;;;;;-0.13;100.00;99800.20;1819743;78;21382;-69
2021/01/09 07:10:54;;;;;;;15.40;7.50;;;;;;;-0.15;100.00;99794.14;1817220;78;20929;-70
2021/01/09 07:13:22;;;;;;;13.23;7.63;;;;;;;-0.17;100.00;99790.27;1788824;78;21051;-70
2021/01/09 07:16:12;;;;;;;7.90;5.20;;;;;;;-0.16;100.00;99781.80;1740385;82;21546;-71
2021/01/09 07:18:43;;;;;;;9.97;5.80;;;;;;;-0.16;100.00;99810.58;1624140;88;21114;-70
2021/01/09 07:21:12;;;;;;;12.87;7.00;;;;;;;-0.16;100.00;99783.12;1623691;85;21393;-69
2021/01/09 07:23:39;;;;;;;16.90;8.43;;;;;;;-0.19;100.00;99785.54;1673661;85;21066;-70
2021/01/09 07:26:09;;;;;;;12.73;6.70;;;;;;;-0.22;100.00;99778.62;1673670;85;21098;-69
2021/01/09 07:28:37;;;;;;;11.87;6.77;;;;;;;-0.23;100.00;99773.41;1673618;85;21110;-70
2021/01/09 07:31:13;;;;;;;8.33;5.20;;;;;;;-0.22;100.00;99768.48;1650381;85;21535;-70
2021/01/09 07:33:42;;;;;;;14.63;7.73;;;;;;;-0.22;100.00;99772.46;1659640;85;21378;-70
2021/01/09 07:36:12;;;;;;;22.97;12.07;;;;;;;-0.21;100.00;99776.34;1654555;85;21019;-70
2021/01/09 07:38:47;;;;;;;25.13;12.97;;;;;;;-0.20;100.00;99782.50;1658159;85;21141;-70
2021/01/09 07:41:36;;;;;;;21.13;12.90;;;;;;;-0.18;100.00;99776.59;1846449;76;25865;-69
2021/01/09 07:44:12;;;;;;;16.90;11.33;;;;;;;-0.21;100.00;99792.78;1787821;79;20978;-69
2021/01/09 07:46:56;;;;;;;8.03;6.00;;;;;;;-0.21;100.00;99786.13;1823876;76;21777;-69
2021/01/09 07:49:35;;;;;;;17.13;7.70;;;;;;;-0.21;100.00;99796.28;1788916;79;21040;-69
2021/01/09 07:52:12;;;;;;;15.17;7.93;;;;;;;-0.15;100.00;99800.79;1843105;77;24983;-70
2021/01/09 07:54:44;;;;;;;20.33;9.53;;;;;;;-0.16;100.00;99784.46;1824010;77;20985;-73
2021/01/09 07:57:22;;;;;;;13.53;8.03;;;;;;;-0.15;100.00;99787.02;1823296;77;21783;-71
2021/01/09 08:00:03;;;;;;;11.40;6.23;;;;;;;-0.14;100.00;99784.73;1821898;77;21045;-70
2021/01/09 08:02:38;;;;;;;8.57;5.50;;;;;;;-0.10;100.00;99786.21;1829023;77;21059;-72
2021/01/09 08:05:15;;;;;;;14.23;7.17;;;;;;;-0.06;100.00;99796.98;1822147;77;21048;-69
2021/01/09 08:07:52;;;;;;;16.70;9.27;;;;;;;-0.02;100.00;99789.18;1821265;78;20993;-71
2021/01/09 08:10:34;;;;;;;28.13;14.10;;;;;;;0.06;100.00;99789.11;1822130;77;21190;-69
2021/01/09 08:13:07;;;;;;;26.97;12.87;;;;;;;0.08;100.00;99796.49;1821867;77;21046;-73
2021/01/09 08:15:37;;;;;;;14.85;8.45;;;;;;;0.09;100.00;99811.01;1830869;77;21036;-70
2021/01/09 08:18:06;;;;;;;8.67;5.27;;;;;;;0.09;100.00;99820.77;1824106;77;21035;-71
2021/01/09 08:20:35;;;;;;;16.30;9.60;;;;;;;0.09;100.00;99829.62;1831821;77;20985;-73
2021/01/09 08:23:05;;;;;;;16.30;8.40;;;;;;;0.09;100.00;99824.30;1844796;77;21205;-72
2021/01/09 08:28:13;;;;;;;19.87;9.13;;;;;;;0.13;100.00;99804.99;1872739;74;25766;-70
2021/01/09 08:30:41;;;;;;;20.60;11.50;;;;;;;0.09;100.00;99796.84;1828908;77;21033;-70
2021/01/09 08:33:15;;;;;;;13.60;7.37;;;;;;;0.08;100.00;99797.82;1877818;75;21251;-71
2021/01/09 08:35:50;;;;;;;25.20;13.67;;;;;;;0.06;100.00;99805.06;1860054;76;21022;-68
2021/01/09 08:38:28;;;;;;;25.87;13.67;;;;;;;0.02;100.00;99803.56;1778211;79;20946;-68
2021/01/09 08:40:59;;;;;;;26.40;11.83;;;;;;;-0.02;100.00;99802.47;1813117;78;21013;-70
2021/01/09 08:43:27;;;;;;;17.33;10.20;;;;;;;-0.03;100.00;99806.56;1724096;81;21074;-70
2021/01/09 08:45:55;;;;;;;10.83;6.03;;;;;;;-0.05;100.00;99806.67;1722694;81;21376;-69
2021/01/09 08:48:30;;;;;;;11.23;6.50;;;;;;;-0.06;100.00;99799.64;1737175;81;21177;-70
2021/01/09 08:51:11;;;;;;;14.27;7.60;;;;;;;-0.05;100.00;99801.36;1734059;81;20988;-70
2021/01/09 08:53:53;;;;;;;19.17;8.27;;;;;;;-0.01;100.00;99798.84;1731846;81;21161;-70
2021/01/09 08:56:23;;;;;;;14.23;8.43;;;;;;;0.06;100.00;99797.09;1740189;81;21246;-70
2021/01/09 08:58:52;;;;;;;12.43;7.63;;;;;;;0.12;100.00;99797.96;1734451;81;21874;-71
2021/01/09 09:01:51;;;;;;;12.57;7.83;;;;;;;0.13;100.00;99794.36;1705467;81;21201;-69
2021/01/09 09:04:26;;;;;;;12.17;7.33;;;;;;;0.14;100.00;99784.95;1832840;76;25783;-72
2021/01/09 09:07:00;;;;;;;27.77;15.63;;;;;;;0.10;100.00;99790.09;1725801;82;20997;-70
2021/01/09 09:09:32;;;;;;;28.23;14.60;;;;;;;0.12;100.00;99778.86;1742293;81;22368;-69
2021/01/09 09:12:06;;;;;;;18.97;12.03;;;;;;;0.12;100.00;99781.52;1704678;81;21081;-70
2021/01/09 09:14:34;;;;;;;19.93;12.40;;;;;;;0.16;100.00;99786.13;1746506;81;21214;-68
2021/01/09 09:17:04;;;;;;;11.73;6.67;;;;;;;0.21;100.00;99784.00;1749544;81;21067;-69
2021/01/09 09:19:36;;;;;;;19.37;8.83;;;;;;;0.21;100.00;99785.81;1751392;79;21105;-70
2021/01/09 09:22:06;;;;;;;12.43;7.07;;;;;;;0.22;100.00;99793.69;1738256;80;21428;-68
2021/01/09 09:24:42;;;;;;;9.80;5.83;;;;;;;0.21;100.00;99797.78;1755035;81;21594;-71
2021/01/09 09:27:31;;;;;;;11.87;6.53;;;;;;;0.22;100.00;99791.52;1771361;80;21058;-70
2021/01/09 09:30:13;;;;;;;16.57;8.13;;;;;;;0.27;100.00;99787.55;1754225;81;21060;-70
2021/01/09 09:32:43;;;;;;;10.40;6.12;;;;;;;0.32;100.00;99780.09;1750222;81;21040;-71
2021/01/09 09:35:27;;;;;;;13.70;7.97;;;;;;;0.38;100.00;99784.11;1760883;79;21204;-68
2021/01/09 09:37:59;;;;;;;21.57;10.83;;;;;;;0.44;100.00;99785.47;1752538;81;21080;-67
2021/01/09 09:40:29;;;;;;;9.47;5.97;;;;;;;0.46;100.00;99790.19;1752592;81;21613;-71
2021/01/09 09:43:18;;;;;;;13.90;8.47;;;;;;;0.49;100.00;99794.80;1751974;81;20921;-68
2021/01/09 09:48:43;;;;;;;20.80;10.00;;;;;;;0.62;100.00;99776.60;1836311;76;26676;-69
2021/01/09 09:51:12;;;;;;;17.85;8.35;;;;;;;0.63;100.00;99778.31;1802255;79;21029;-67
2021/01/09 09:53:49;;;;;;;30.00;13.63;;;;;;;0.71;100.00;99780.77;1807162;79;21194;-68
2021/01/09 09:56:23;;;;;;;33.00;18.07;;;;;;;0.76;100.00;99772.42;1799052;79;21039;-70
2021/01/09 09:59:02;;;;;;;18.90;9.80;;;;;;;0.74;100.00;99777.89;1740459;80;21015;-70
2021/01/09 10:01:31;;;;;;;16.47;8.10;;;;;;;0.77;100.00;99780.80;1747966;79;21045;-72
2021/01/09 10:04:00;;;;;;;12.77;7.30;;;;;;;0.83;100.00;99771.49;1747158;81;21033;-69
2021/01/09 10:06:38;;;;;;;10.90;6.20;;;;;;;0.94;100.00;99768.89;1740824;82;21210;-68
2021/01/09 10:09:14;;;;;;;29.70;12.73;;;;;;;1.03;100.00;99770.01;1669449;85;21020;-71
2021/01/09 10:11:50;;;;;;;26.50;12.83;;;;;;;1.17;100.00;99764.93;1889270;76;26609;-69
2021/01/09 10:14:20;;;;;;;20.90;9.80;;;;;;;1.14;100.00;99769.53;1860083;77;21042;-69
2021/01/09 10:16:49;;;;;;;20.37;11.73;;;;;;;1.11;100.00;99766.26;1860690;77;21287;-70
2021/01/09 10:19:18;;;;;;;12.47;5.90;;;;;;;1.11;100.00;99768.92;1860728;77;20970;-69
2021/01/09 10:21:47;;;;;;;10.67;6.13;;;;;;;1.09;100.00;99769.52;1860836;77;21089;-69
2021/01/09 10:24:15;;;;;;;13.23;6.97;;;;;;;1.08;100.00;99766.48;1860713;77;20951;-69
2021/01/09 10:26:43;;;;;;;19.70;8.87;;;;;;;1.06;100.00;99773.28;1861022;77;20923;-69
2021/01/09 10:29:14;;;;;;;15.33;7.77;;;;;;;1.04;100.00;99778.34;1856426;77;22359;-69
2021/01/09 10:31:43;;;;;;;8.90;5.40;;;;;;;1.01;100.00;99776.78;1828888;77;20998;-71
2021/01/09 10:34:11;;;;;;;11.30;5.07;;;;;;;1.00;100.00;99775.06;1861022;77;20927;-71
2021/01/09 10:36:39;;;;;;;14.00;6.37;;;;;;;1.01;100.00;99776.78;1860746;77;20966;-69
2021/01/09 10:39:08;;;;;;;13.37;6.60;;;;;;;1.02;100.00;99782.45;1860744;77;20990;-71
2021/01/09 10:41:36;;;;;;;13.73;6.77;;;;;;;1.04;100.00;99779.67;1860797;77;21317;-70
2021/01/09 10:44:05;;;;;;;8.47;5.57;;;;;;;1.06;100.00;99775.95;1860773;77;21018;-71
2021/01/09 10:46:33;;;;;;;11.70;5.73;;;;;;;1.08;100.00;99782.00;1871048;76;20985;-69
2021/01/09 10:49:02;;;;;;;8.37;5.07;;;;;;;1.12;100.00;99783.95;1790174;80;21077;-70
2021/01/09 10:51:30;;;;;;;22.03;10.50;;;;;;;1.12;100.00;99783.95;1822967;78;20915;-69
2021/01/09 10:54:01;;;;;;;21.57;10.53;;;;;;;1.12;100.00;99781.28;1814074;79;21351;-71
2021/01/09 10:56:29;;;;;;;13.87;6.87;;;;;;;1.12;100.00;99783.95;1814126;79;20934;-68
2021/01/09 10:58:57;;;;;;;12.07;5.93;;;;;;;1.08;100.00;99785.13;1790646;80;21005;-70
2021/01/09 11:01:26;;;;;;;11.77;6.00;;;;;;;1.01;100.00;99793.21;1813986;79;20990;-68
2021/01/09 11:03:54;;;;;;;14.53;6.03;;;;;;;0.95;100.00;99798.52;1790679;80;20982;-69
2021/01/09 11:06:23;;;;;;;17.43;6.67;;;;;;;0.91;100.00;99795.25;1813975;78;21371;-69
2021/01/09 11:08:51;;;;;;;11.43;6.13;;;;;;;0.92;100.00;99798.74;1790447;80;21040;-68
2021/01/09 11:11:21;;;;;;;10.23;5.40;;;;;;;0.87;100.00;99793.78;1799890;78;20966;-68
2021/01/09 11:13:49;;;;;;;7.07;4.37;;;;;;;0.85;100.00;99794.84;1765252;81;21008;-69
2021/01/09 11:16:20;;;;;;;10.17;4.77;;;;;;;0.82;100.00;99799.94;1780219;80;20962;-71
2021/01/09 11:18:48;;;;;;;14.53;5.77;;;;;;;0.82;100.00;99807.08;1780228;80;21346;-69
2021/01/09 11:21:18;;;;;;;12.13;6.37;;;;;;;0.83;100.00;99810.93;1765081;81;20965;-69
2021/01/09 11:23:46;;;;;;;11.63;5.67;;;;;;;0.80;100.00;99810.31;1779649;80;21104;-69
2021/01/09 11:26:27;;;;;;;9.30;5.33;;;;;;;0.78;100.00;99803.80;1764562;81;20962;-68
2021/01/09 11:28:55;;;;;;;9.13;4.00;;;;;;;0.77;100.00;99801.25;1763101;81;21029;-70
2021/01/09 11:31:24;;;;;;;8.57;3.90;;;;;;;0.77;100.00;99811.89;1779686;80;21166;-70
2021/01/09 11:33:52;;;;;;;11.47;5.30;;;;;;;0.73;100.00;99808.12;1764756;81;21060;-69
2021/01/09 11:36:21;;;;;;;17.13;7.60;;;;;;;0.69;100.00;99807.98;1779712;80;21014;-69
2021/01/09 11:38:49;;;;;;;13.27;6.63;;;;;;;0.71;100.00;99811.38;1779805;80;20930;-69
2021/01/09 11:41:17;;;;;;;11.33;5.77;;;;;;;0.74;100.00;99815.16;1764937;81;20957;-71
2021/01/09 11:43:46;;;;;;;11.93;5.57;;;;;;;0.76;100.00;99815.02;1779727;80;21194;-69
2021/01/09 11:46:14;;;;;;;11.77;5.83;;;;;;;0.76;100.00;99817.67;1778718;80;21576;-69
2021/01/09 11:48:44;;;;;;;13.13;5.87;;;;;;;0.73;100.00;99818.77;1790066;80;21616;-69